sensor_id;sensor_type;location;lat;lon;timestamp;P1;durP1;ratioP1;P2;durP2;ratioP2
13590;SDS011;6866;50.778;7.206;2023-08-08T00:01:23;6.47;;;2.10;;
13590;SDS011;6866;50.778;7.206;2023-08-08T00:03:49;7.60;;;2.58;;
13590;SDS011;6866;50.778;7.206;2023-08-08T00:06:14;5.35;;;2.10;;
13590;SDS011;6866;50.778;7.206;2023-08-08T00:08:40;6.30;;;2.10;;
13590;SDS011;6866;50.778;7.206;2023-08-08T00:11:06;4.88;;;1.92;;
13590;SDS011;6866;50.778;7.206;2023-08-08T00:13:31;4.97;;;1.65;;
13590;SDS011;6866;50.778;7.206;2023-08-08T00:15:57;8.65;;;2.00;;
13590;SDS011;6866;50.778;7.206;2023-08-08T00:18:23;5.28;;;1.80;;
13590;SDS011;6866;50.778;7.206;2023-08-08T00:20:48;7.07;;;2.85;;
13590;SDS011;6866;50.778;7.206;2023-08-08T00:23:14;4.20;;;2.00;;
13590;SDS011;6866;50.778;7.206;2023-08-08T00:25:40;8.02;;;2.00;;
13590;SDS011;6866;50.778;7.206;2023-08-08T00:28:05;3.30;;;1.90;;
13590;SDS011;6866;50.778;7.206;2023-08-08T00:30:31;5.28;;;1.80;;
13590;SDS011;6866;50.778;7.206;2023-08-08T00:32:57;6.53;;;1.83;;
13590;SDS011;6866;50.778;7.206;2023-08-08T00:35:22;4.72;;;2.30;;
13590;SDS011;6866;50.778;7.206;2023-08-08T00:37:48;5.63;;;2.15;;
13590;SDS011;6866;50.778;7.206;2023-08-08T00:40:14;5.00;;;2.30;;
13590;SDS011;6866;50.778;7.206;2023-08-08T00:42:39;4.53;;;1.90;;
13590;SDS011;6866;50.778;7.206;2023-08-08T00:45:06;8.02;;;2.60;;
13590;SDS011;6866;50.778;7.206;2023-08-08T00:47:32;5.75;;;2.08;;
13590;SDS011;6866;50.778;7.206;2023-08-08T00:49:59;5.43;;;2.00;;
13590;SDS011;6866;50.778;7.206;2023-08-08T00:52:25;10.27;;;2.38;;
13590;SDS011;6866;50.778;7.206;2023-08-08T00:54:52;7.45;;;2.17;;
13590;SDS011;6866;50.778;7.206;2023-08-08T00:57:18;5.40;;;2.22;;
13590;SDS011;6866;50.778;7.206;2023-08-08T00:59:44;6.93;;;2.65;;
13590;SDS011;6866;50.778;7.206;2023-08-08T01:04:45;5.07;;;2.33;;
13590;SDS011;6866;50.778;7.206;2023-08-08T01:09:37;6.20;;;2.25;;
13590;SDS011;6866;50.778;7.206;2023-08-08T01:12:08;3.50;;;1.92;;
13590;SDS011;6866;50.778;7.206;2023-08-08T01:14:37;5.90;;;2.33;;
13590;SDS011;6866;50.778;7.206;2023-08-08T01:17:05;4.50;;;2.15;;
13590;SDS011;6866;50.778;7.206;2023-08-08T01:19:31;3.15;;;1.95;;
13590;SDS011;6866;50.778;7.206;2023-08-08T01:22:01;4.30;;;2.03;;
13590;SDS011;6866;50.778;7.206;2023-08-08T01:24:29;5.32;;;1.90;;
13590;SDS011;6866;50.778;7.206;2023-08-08T01:26:57;5.97;;;2.20;;
13590;SDS011;6866;50.778;7.206;2023-08-08T01:29:25;5.00;;;2.00;;
13590;SDS011;6866;50.778;7.206;2023-08-08T01:31:51;4.55;;;2.00;;
13590;SDS011;6866;50.778;7.206;2023-08-08T01:34:16;4.30;;;2.10;;
13590;SDS011;6866;50.778;7.206;2023-08-08T01:36:49;3.45;;;1.85;;
13590;SDS011;6866;50.778;7.206;2023-08-08T01:39:22;5.20;;;1.90;;
13590;SDS011;6866;50.778;7.206;2023-08-08T01:41:54;12.68;;;2.10;;
13590;SDS011;6866;50.778;7.206;2023-08-08T01:44:21;4.38;;;1.67;;
13590;SDS011;6866;50.778;7.206;2023-08-08T01:46:48;4.03;;;1.60;;
13590;SDS011;6866;50.778;7.206;2023-08-08T01:49:14;6.50;;;1.88;;
13590;SDS011;6866;50.778;7.206;2023-08-08T01:51:40;3.85;;;1.77;;
13590;SDS011;6866;50.778;7.206;2023-08-08T01:54:06;3.78;;;2.03;;
13590;SDS011;6866;50.778;7.206;2023-08-08T01:56:31;3.95;;;1.40;;
13590;SDS011;6866;50.778;7.206;2023-08-08T01:58:57;5.70;;;1.80;;
13590;SDS011;6866;50.778;7.206;2023-08-08T02:01:22;5.78;;;1.90;;
13590;SDS011;6866;50.778;7.206;2023-08-08T02:03:48;6.10;;;2.05;;
13590;SDS011;6866;50.778;7.206;2023-08-08T02:06:13;4.68;;;2.00;;
13590;SDS011;6866;50.778;7.206;2023-08-08T02:08:39;4.22;;;2.10;;
13590;SDS011;6866;50.778;7.206;2023-08-08T02:11:05;6.63;;;1.90;;
13590;SDS011;6866;50.778;7.206;2023-08-08T02:13:30;7.85;;;2.30;;
13590;SDS011;6866;50.778;7.206;2023-08-08T02:15:56;6.53;;;1.90;;
13590;SDS011;6866;50.778;7.206;2023-08-08T02:18:21;5.72;;;2.03;;
13590;SDS011;6866;50.778;7.206;2023-08-08T02:20:47;6.95;;;1.80;;
13590;SDS011;6866;50.778;7.206;2023-08-08T02:23:12;5.28;;;1.90;;
13590;SDS011;6866;50.778;7.206;2023-08-08T02:25:38;4.82;;;1.83;;
13590;SDS011;6866;50.778;7.206;2023-08-08T02:28:03;5.95;;;2.22;;
13590;SDS011;6866;50.778;7.206;2023-08-08T02:30:29;6.53;;;2.03;;
13590;SDS011;6866;50.778;7.206;2023-08-08T02:32:55;4.65;;;1.77;;
13590;SDS011;6866;50.778;7.206;2023-08-08T02:35:21;4.85;;;1.98;;
13590;SDS011;6866;50.778;7.206;2023-08-08T02:37:46;12.05;;;2.35;;
13590;SDS011;6866;50.778;7.206;2023-08-08T02:40:12;4.78;;;1.98;;
13590;SDS011;6866;50.778;7.206;2023-08-08T02:42:37;5.03;;;1.80;;
13590;SDS011;6866;50.778;7.206;2023-08-08T02:45:03;5.63;;;2.15;;
13590;SDS011;6866;50.778;7.206;2023-08-08T02:47:29;5.65;;;2.10;;
13590;SDS011;6866;50.778;7.206;2023-08-08T02:49:54;6.70;;;2.45;;
13590;SDS011;6866;50.778;7.206;2023-08-08T02:52:20;5.50;;;2.15;;
13590;SDS011;6866;50.778;7.206;2023-08-08T02:54:45;4.05;;;2.10;;
13590;SDS011;6866;50.778;7.206;2023-08-08T02:57:11;8.35;;;2.40;;
13590;SDS011;6866;50.778;7.206;2023-08-08T02:59:37;5.43;;;2.20;;
13590;SDS011;6866;50.778;7.206;2023-08-08T03:02:03;7.65;;;2.20;;
13590;SDS011;6866;50.778;7.206;2023-08-08T03:04:29;5.35;;;2.17;;
13590;SDS011;6866;50.778;7.206;2023-08-08T03:06:54;6.88;;;2.10;;
13590;SDS011;6866;50.778;7.206;2023-08-08T03:09:20;6.45;;;2.20;;
13590;SDS011;6866;50.778;7.206;2023-08-08T03:11:46;5.07;;;1.98;;
13590;SDS011;6866;50.778;7.206;2023-08-08T03:14:11;5.75;;;2.20;;
13590;SDS011;6866;50.778;7.206;2023-08-08T03:16:37;3.45;;;1.80;;
13590;SDS011;6866;50.778;7.206;2023-08-08T03:19:03;7.25;;;2.20;;
13590;SDS011;6866;50.778;7.206;2023-08-08T03:21:29;5.18;;;2.03;;
13590;SDS011;6866;50.778;7.206;2023-08-08T03:23:54;5.28;;;1.98;;
13590;SDS011;6866;50.778;7.206;2023-08-08T03:26:20;5.57;;;1.95;;
13590;SDS011;6866;50.778;7.206;2023-08-08T03:28:45;6.47;;;2.03;;
13590;SDS011;6866;50.778;7.206;2023-08-08T03:31:15;4.90;;;1.70;;
13590;SDS011;6866;50.778;7.206;2023-08-08T03:33:41;7.75;;;1.90;;
13590;SDS011;6866;50.778;7.206;2023-08-08T03:36:07;5.95;;;1.80;;
13590;SDS011;6866;50.778;7.206;2023-08-08T03:38:33;7.13;;;1.92;;
13590;SDS011;6866;50.778;7.206;2023-08-08T03:40:59;6.43;;;2.05;;
13590;SDS011;6866;50.778;7.206;2023-08-08T03:43:24;5.95;;;1.90;;
13590;SDS011;6866;50.778;7.206;2023-08-08T03:45:50;8.18;;;2.13;;
13590;SDS011;6866;50.778;7.206;2023-08-08T03:48:15;7.22;;;1.88;;
13590;SDS011;6866;50.778;7.206;2023-08-08T03:50:41;5.07;;;1.88;;
13590;SDS011;6866;50.778;7.206;2023-08-08T03:53:06;6.00;;;1.95;;
13590;SDS011;6866;50.778;7.206;2023-08-08T03:55:32;8.90;;;1.85;;
13590;SDS011;6866;50.778;7.206;2023-08-08T03:57:58;5.38;;;1.70;;
13590;SDS011;6866;50.778;7.206;2023-08-08T04:00:24;4.78;;;1.73;;
13590;SDS011;6866;50.778;7.206;2023-08-08T04:02:49;5.50;;;1.80;;
13590;SDS011;6866;50.778;7.206;2023-08-08T04:05:15;7.28;;;2.10;;
13590;SDS011;6866;50.778;7.206;2023-08-08T04:07:40;5.70;;;1.75;;
13590;SDS011;6866;50.778;7.206;2023-08-08T04:10:06;4.95;;;1.90;;
13590;SDS011;6866;50.778;7.206;2023-08-08T04:12:32;11.60;;;1.95;;
13590;SDS011;6866;50.778;7.206;2023-08-08T04:14:58;6.47;;;2.10;;
13590;SDS011;6866;50.778;7.206;2023-08-08T04:17:23;8.93;;;1.90;;
13590;SDS011;6866;50.778;7.206;2023-08-08T04:19:49;9.82;;;2.00;;
13590;SDS011;6866;50.778;7.206;2023-08-08T04:22:15;6.07;;;1.63;;
13590;SDS011;6866;50.778;7.206;2023-08-08T04:24:41;6.05;;;1.80;;
13590;SDS011;6866;50.778;7.206;2023-08-08T04:27:07;4.60;;;1.60;;
13590;SDS011;6866;50.778;7.206;2023-08-08T04:29:33;3.78;;;1.77;;
13590;SDS011;6866;50.778;7.206;2023-08-08T04:31:58;5.13;;;2.13;;
13590;SDS011;6866;50.778;7.206;2023-08-08T04:34:24;7.15;;;2.00;;
13590;SDS011;6866;50.778;7.206;2023-08-08T04:36:50;4.13;;;1.90;;
13590;SDS011;6866;50.778;7.206;2023-08-08T04:39:15;4.93;;;2.10;;
13590;SDS011;6866;50.778;7.206;2023-08-08T04:41:41;5.70;;;2.08;;
13590;SDS011;6866;50.778;7.206;2023-08-08T04:44:06;4.97;;;1.95;;
13590;SDS011;6866;50.778;7.206;2023-08-08T04:46:32;5.97;;;2.35;;
13590;SDS011;6866;50.778;7.206;2023-08-08T04:48:57;4.60;;;2.28;;
13590;SDS011;6866;50.778;7.206;2023-08-08T04:51:23;4.97;;;2.22;;
13590;SDS011;6866;50.778;7.206;2023-08-08T04:53:48;6.60;;;2.15;;
13590;SDS011;6866;50.778;7.206;2023-08-08T04:56:14;7.97;;;2.47;;
13590;SDS011;6866;50.778;7.206;2023-08-08T04:58:39;6.70;;;2.42;;
13590;SDS011;6866;50.778;7.206;2023-08-08T05:01:05;6.30;;;2.70;;
13590;SDS011;6866;50.778;7.206;2023-08-08T05:03:32;11.95;;;2.92;;
13590;SDS011;6866;50.778;7.206;2023-08-08T05:05:58;7.40;;;2.92;;
13590;SDS011;6866;50.778;7.206;2023-08-08T05:08:24;6.10;;;2.60;;
13590;SDS011;6866;50.778;7.206;2023-08-08T05:10:49;7.78;;;2.88;;
13590;SDS011;6866;50.778;7.206;2023-08-08T05:13:15;7.35;;;2.72;;
13590;SDS011;6866;50.778;7.206;2023-08-08T05:15:40;7.25;;;2.60;;
13590;SDS011;6866;50.778;7.206;2023-08-08T05:18:06;7.60;;;2.22;;
13590;SDS011;6866;50.778;7.206;2023-08-08T05:20:31;9.60;;;2.13;;
13590;SDS011;6866;50.778;7.206;2023-08-08T05:22:57;5.45;;;2.10;;
13590;SDS011;6866;50.778;7.206;2023-08-08T05:25:22;6.15;;;2.20;;
13590;SDS011;6866;50.778;7.206;2023-08-08T05:27:48;5.28;;;2.25;;
13590;SDS011;6866;50.778;7.206;2023-08-08T05:30:14;6.82;;;2.38;;
13590;SDS011;6866;50.778;7.206;2023-08-08T05:32:40;5.60;;;2.00;;
13590;SDS011;6866;50.778;7.206;2023-08-08T05:35:06;5.78;;;2.10;;
13590;SDS011;6866;50.778;7.206;2023-08-08T05:37:32;6.10;;;2.13;;
13590;SDS011;6866;50.778;7.206;2023-08-08T05:39:57;7.60;;;2.47;;
13590;SDS011;6866;50.778;7.206;2023-08-08T05:42:23;5.22;;;2.00;;
13590;SDS011;6866;50.778;7.206;2023-08-08T05:44:48;6.68;;;2.00;;
13590;SDS011;6866;50.778;7.206;2023-08-08T05:47:14;5.68;;;1.85;;
13590;SDS011;6866;50.778;7.206;2023-08-08T05:49:39;7.82;;;2.13;;
13590;SDS011;6866;50.778;7.206;2023-08-08T05:52:08;5.78;;;2.10;;
13590;SDS011;6866;50.778;7.206;2023-08-08T05:54:33;6.00;;;2.00;;
13590;SDS011;6866;50.778;7.206;2023-08-08T05:56:59;7.90;;;2.20;;
13590;SDS011;6866;50.778;7.206;2023-08-08T05:59:25;4.25;;;1.92;;
13590;SDS011;6866;50.778;7.206;2023-08-08T06:01:50;6.72;;;2.78;;
13590;SDS011;6866;50.778;7.206;2023-08-08T06:04:16;8.20;;;2.20;;
13590;SDS011;6866;50.778;7.206;2023-08-08T06:06:42;6.47;;;2.42;;
13590;SDS011;6866;50.778;7.206;2023-08-08T06:09:08;8.00;;;2.15;;
13590;SDS011;6866;50.778;7.206;2023-08-08T06:11:34;7.72;;;2.00;;
13590;SDS011;6866;50.778;7.206;2023-08-08T06:13:59;7.25;;;2.38;;
13590;SDS011;6866;50.778;7.206;2023-08-08T06:16:25;6.85;;;2.10;;
13590;SDS011;6866;50.778;7.206;2023-08-08T06:18:51;5.90;;;2.10;;
13590;SDS011;6866;50.778;7.206;2023-08-08T06:21:17;5.53;;;1.98;;
13590;SDS011;6866;50.778;7.206;2023-08-08T06:23:43;5.32;;;2.30;;
13590;SDS011;6866;50.778;7.206;2023-08-08T06:26:08;7.47;;;2.30;;
13590;SDS011;6866;50.778;7.206;2023-08-08T06:28:34;6.45;;;2.30;;
13590;SDS011;6866;50.778;7.206;2023-08-08T06:31:00;8.38;;;2.60;;
13590;SDS011;6866;50.778;7.206;2023-08-08T06:33:26;10.43;;;2.10;;
13590;SDS011;6866;50.778;7.206;2023-08-08T06:35:51;5.30;;;2.30;;
13590;SDS011;6866;50.778;7.206;2023-08-08T06:38:17;6.32;;;2.03;;
13590;SDS011;6866;50.778;7.206;2023-08-08T06:40:43;11.23;;;2.40;;
13590;SDS011;6866;50.778;7.206;2023-08-08T06:43:08;8.20;;;2.13;;
13590;SDS011;6866;50.778;7.206;2023-08-08T06:45:34;5.63;;;2.50;;
13590;SDS011;6866;50.778;7.206;2023-08-08T06:48:00;6.07;;;2.42;;
13590;SDS011;6866;50.778;7.206;2023-08-08T06:50:25;8.35;;;2.30;;
13590;SDS011;6866;50.778;7.206;2023-08-08T06:52:51;5.32;;;2.25;;
13590;SDS011;6866;50.778;7.206;2023-08-08T06:55:16;10.38;;;2.50;;
13590;SDS011;6866;50.778;7.206;2023-08-08T06:57:42;6.78;;;2.40;;
13590;SDS011;6866;50.778;7.206;2023-08-08T07:00:08;5.70;;;2.20;;
13590;SDS011;6866;50.778;7.206;2023-08-08T07:02:37;8.27;;;2.35;;
13590;SDS011;6866;50.778;7.206;2023-08-08T07:05:02;5.88;;;2.05;;
13590;SDS011;6866;50.778;7.206;2023-08-08T07:07:28;7.03;;;2.50;;
13590;SDS011;6866;50.778;7.206;2023-08-08T07:09:55;11.73;;;2.55;;
13590;SDS011;6866;50.778;7.206;2023-08-08T07:12:21;7.63;;;2.60;;
13590;SDS011;6866;50.778;7.206;2023-08-08T07:14:47;10.32;;;3.05;;
13590;SDS011;6866;50.778;7.206;2023-08-08T07:17:12;7.28;;;2.60;;
13590;SDS011;6866;50.778;7.206;2023-08-08T07:19:38;7.05;;;2.30;;
13590;SDS011;6866;50.778;7.206;2023-08-08T07:22:03;7.00;;;2.33;;
13590;SDS011;6866;50.778;7.206;2023-08-08T07:24:29;8.00;;;2.28;;
13590;SDS011;6866;50.778;7.206;2023-08-08T07:48:45;4.60;;;1.77;;
13590;SDS011;6866;50.778;7.206;2023-08-08T07:51:11;7.07;;;1.83;;
13590;SDS011;6866;50.778;7.206;2023-08-08T07:53:36;5.55;;;1.80;;
13590;SDS011;6866;50.778;7.206;2023-08-08T07:58:27;8.10;;;1.77;;
13590;SDS011;6866;50.778;7.206;2023-08-08T08:00:53;6.90;;;1.90;;
13590;SDS011;6866;50.778;7.206;2023-08-08T08:03:19;7.70;;;2.13;;
13590;SDS011;6866;50.778;7.206;2023-08-08T08:05:45;9.45;;;2.05;;
13590;SDS011;6866;50.778;7.206;2023-08-08T08:08:11;8.52;;;1.80;;
13590;SDS011;6866;50.778;7.206;2023-08-08T08:10:36;6.57;;;1.90;;
13590;SDS011;6866;50.778;7.206;2023-08-08T08:13:02;5.88;;;2.08;;
13590;SDS011;6866;50.778;7.206;2023-08-08T08:15:27;7.78;;;2.05;;
13590;SDS011;6866;50.778;7.206;2023-08-08T08:27:36;5.80;;;1.90;;
13590;SDS011;6866;50.778;7.206;2023-08-08T08:44:43;4.85;;;1.90;;
13590;SDS011;6866;50.778;7.206;2023-08-08T08:47:09;4.55;;;1.92;;
13590;SDS011;6866;50.778;7.206;2023-08-08T08:49:38;6.22;;;2.13;;
13590;SDS011;6866;50.778;7.206;2023-08-08T08:52:06;10.90;;;2.50;;
13590;SDS011;6866;50.778;7.206;2023-08-08T08:54:32;4.85;;;1.90;;
13590;SDS011;6866;50.778;7.206;2023-08-08T08:56:58;6.72;;;2.40;;
13590;SDS011;6866;50.778;7.206;2023-08-08T08:59:24;8.60;;;2.72;;
13590;SDS011;6866;50.778;7.206;2023-08-08T09:01:50;9.15;;;2.70;;
13590;SDS011;6866;50.778;7.206;2023-08-08T09:04:18;4.85;;;2.10;;
13590;SDS011;6866;50.778;7.206;2023-08-08T09:06:44;9.80;;;2.70;;
13590;SDS011;6866;50.778;7.206;2023-08-08T09:09:12;7.47;;;2.30;;
13590;SDS011;6866;50.778;7.206;2023-08-08T09:11:38;7.10;;;2.20;;
13590;SDS011;6866;50.778;7.206;2023-08-08T09:14:14;6.40;;;2.15;;
13590;SDS011;6866;50.778;7.206;2023-08-08T09:16:42;7.38;;;2.25;;
13590;SDS011;6866;50.778;7.206;2023-08-08T09:19:08;6.72;;;2.22;;
13590;SDS011;6866;50.778;7.206;2023-08-08T09:21:33;9.82;;;2.40;;
13590;SDS011;6866;50.778;7.206;2023-08-08T09:23:59;7.20;;;2.13;;
13590;SDS011;6866;50.778;7.206;2023-08-08T09:26:24;6.57;;;2.40;;
13590;SDS011;6866;50.778;7.206;2023-08-08T09:28:50;6.25;;;2.25;;
13590;SDS011;6866;50.778;7.206;2023-08-08T09:31:16;6.15;;;1.85;;
13590;SDS011;6866;50.778;7.206;2023-08-08T09:33:41;5.03;;;2.00;;
13590;SDS011;6866;50.778;7.206;2023-08-08T09:36:13;5.90;;;2.10;;
13590;SDS011;6866;50.778;7.206;2023-08-08T09:38:44;8.15;;;2.30;;
13590;SDS011;6866;50.778;7.206;2023-08-08T09:41:10;6.28;;;2.10;;
13590;SDS011;6866;50.778;7.206;2023-08-08T09:43:36;6.55;;;2.17;;
13590;SDS011;6866;50.778;7.206;2023-08-08T09:46:02;4.72;;;1.80;;
13590;SDS011;6866;50.778;7.206;2023-08-08T09:48:30;6.97;;;2.13;;
13590;SDS011;6866;50.778;7.206;2023-08-08T09:51:01;6.47;;;2.05;;
13590;SDS011;6866;50.778;7.206;2023-08-08T09:53:29;6.00;;;1.90;;
13590;SDS011;6866;50.778;7.206;2023-08-08T09:55:56;7.25;;;1.90;;
13590;SDS011;6866;50.778;7.206;2023-08-08T09:58:22;5.80;;;2.10;;
13590;SDS011;6866;50.778;7.206;2023-08-08T10:00:51;4.68;;;1.50;;
13590;SDS011;6866;50.778;7.206;2023-08-08T10:03:17;5.53;;;1.80;;
13590;SDS011;6866;50.778;7.206;2023-08-08T10:05:43;5.25;;;1.70;;
13590;SDS011;6866;50.778;7.206;2023-08-08T10:08:09;6.97;;;1.92;;
13590;SDS011;6866;50.778;7.206;2023-08-08T10:10:35;7.45;;;2.00;;
13590;SDS011;6866;50.778;7.206;2023-08-08T10:13:02;5.60;;;1.73;;
13590;SDS011;6866;50.778;7.206;2023-08-08T10:15:28;10.40;;;1.92;;
13590;SDS011;6866;50.778;7.206;2023-08-08T10:17:55;5.13;;;1.90;;
13590;SDS011;6866;50.778;7.206;2023-08-08T10:20:21;4.35;;;1.50;;
13590;SDS011;6866;50.778;7.206;2023-08-08T10:22:51;6.57;;;1.75;;
13590;SDS011;6866;50.778;7.206;2023-08-08T10:25:22;5.75;;;1.50;;
13590;SDS011;6866;50.778;7.206;2023-08-08T10:27:49;8.35;;;1.98;;
13590;SDS011;6866;50.778;7.206;2023-08-08T10:30:15;6.30;;;1.85;;
13590;SDS011;6866;50.778;7.206;2023-08-08T10:32:41;3.65;;;1.70;;
13590;SDS011;6866;50.778;7.206;2023-08-08T10:35:09;6.15;;;1.70;;
13590;SDS011;6866;50.778;7.206;2023-08-08T10:37:36;4.15;;;1.50;;
13590;SDS011;6866;50.778;7.206;2023-08-08T10:40:03;5.70;;;1.70;;
13590;SDS011;6866;50.778;7.206;2023-08-08T10:42:31;5.07;;;1.63;;
13590;SDS011;6866;50.778;7.206;2023-08-08T10:44:58;9.40;;;2.38;;
13590;SDS011;6866;50.778;7.206;2023-08-08T10:47:25;7.28;;;1.90;;
13590;SDS011;6866;50.778;7.206;2023-08-08T10:50:10;4.63;;;1.73;;
13590;SDS011;6866;50.778;7.206;2023-08-08T10:52:38;5.50;;;1.70;;
13590;SDS011;6866;50.778;7.206;2023-08-08T10:58:07;4.47;;;1.67;;
13590;SDS011;6866;50.778;7.206;2023-08-08T11:00:33;4.05;;;1.60;;
13590;SDS011;6866;50.778;7.206;2023-08-08T11:03:00;7.20;;;1.80;;
13590;SDS011;6866;50.778;7.206;2023-08-08T11:05:28;7.25;;;1.75;;
13590;SDS011;6866;50.778;7.206;2023-08-08T11:07:55;5.60;;;1.70;;
13590;SDS011;6866;50.778;7.206;2023-08-08T11:10:21;5.00;;;1.60;;
13590;SDS011;6866;50.778;7.206;2023-08-08T11:12:59;6.78;;;1.50;;
13590;SDS011;6866;50.778;7.206;2023-08-08T11:15:26;6.45;;;1.60;;
13590;SDS011;6866;50.778;7.206;2023-08-08T11:17:52;3.72;;;1.33;;
13590;SDS011;6866;50.778;7.206;2023-08-08T11:20:20;4.88;;;1.67;;
13590;SDS011;6866;50.778;7.206;2023-08-08T11:22:50;5.85;;;1.58;;
13590;SDS011;6866;50.778;7.206;2023-08-08T11:25:20;4.53;;;1.65;;
13590;SDS011;6866;50.778;7.206;2023-08-08T11:27:50;7.03;;;1.60;;
13590;SDS011;6866;50.778;7.206;2023-08-08T11:30:20;5.50;;;1.58;;
13590;SDS011;6866;50.778;7.206;2023-08-08T11:32:46;5.97;;;1.60;;
13590;SDS011;6866;50.778;7.206;2023-08-08T11:35:16;5.13;;;1.63;;
13590;SDS011;6866;50.778;7.206;2023-08-08T11:37:44;6.35;;;1.67;;
13590;SDS011;6866;50.778;7.206;2023-08-08T11:40:13;5.07;;;1.65;;
13590;SDS011;6866;50.778;7.206;2023-08-08T11:42:39;3.85;;;1.63;;
13590;SDS011;6866;50.778;7.206;2023-08-08T11:45:07;4.00;;;1.45;;
13590;SDS011;6866;50.778;7.206;2023-08-08T11:47:34;6.70;;;1.67;;
13590;SDS011;6866;50.778;7.206;2023-08-08T11:50:04;4.93;;;1.50;;
13590;SDS011;6866;50.778;7.206;2023-08-08T11:52:41;5.25;;;1.52;;
13590;SDS011;6866;50.778;7.206;2023-08-08T11:55:10;5.07;;;1.88;;
13590;SDS011;6866;50.778;7.206;2023-08-08T11:57:36;6.78;;;2.03;;
13590;SDS011;6866;50.778;7.206;2023-08-08T12:00:04;3.63;;;1.50;;
13590;SDS011;6866;50.778;7.206;2023-08-08T12:02:34;5.55;;;1.58;;
13590;SDS011;6866;50.778;7.206;2023-08-08T12:05:03;4.80;;;1.48;;
13590;SDS011;6866;50.778;7.206;2023-08-08T12:07:42;5.75;;;1.73;;
13590;SDS011;6866;50.778;7.206;2023-08-08T12:10:13;5.40;;;1.80;;
13590;SDS011;6866;50.778;7.206;2023-08-08T12:12:41;7.85;;;2.00;;
13590;SDS011;6866;50.778;7.206;2023-08-08T12:15:07;6.82;;;1.70;;
13590;SDS011;6866;50.778;7.206;2023-08-08T12:17:34;4.45;;;1.48;;
13590;SDS011;6866;50.778;7.206;2023-08-08T12:20:00;4.55;;;1.48;;
13590;SDS011;6866;50.778;7.206;2023-08-08T12:22:28;7.80;;;1.67;;
13590;SDS011;6866;50.778;7.206;2023-08-08T12:24:53;5.22;;;1.63;;
13590;SDS011;6866;50.778;7.206;2023-08-08T12:27:19;7.50;;;1.80;;
13590;SDS011;6866;50.778;7.206;2023-08-08T12:29:44;6.25;;;1.58;;
13590;SDS011;6866;50.778;7.206;2023-08-08T12:32:10;6.88;;;1.63;;
13590;SDS011;6866;50.778;7.206;2023-08-08T12:34:36;4.57;;;1.80;;
13590;SDS011;6866;50.778;7.206;2023-08-08T12:37:01;5.22;;;1.67;;
13590;SDS011;6866;50.778;7.206;2023-08-08T12:39:27;6.35;;;1.90;;
13590;SDS011;6866;50.778;7.206;2023-08-08T12:41:53;6.60;;;1.60;;
13590;SDS011;6866;50.778;7.206;2023-08-08T12:44:19;5.35;;;1.73;;
13590;SDS011;6866;50.778;7.206;2023-08-08T12:46:45;8.02;;;2.17;;
13590;SDS011;6866;50.778;7.206;2023-08-08T12:49:10;6.03;;;1.65;;
13590;SDS011;6866;50.778;7.206;2023-08-08T12:51:36;6.90;;;2.08;;
13590;SDS011;6866;50.778;7.206;2023-08-08T12:54:02;5.53;;;1.90;;
13590;SDS011;6866;50.778;7.206;2023-08-08T12:56:28;7.13;;;2.03;;
13590;SDS011;6866;50.778;7.206;2023-08-08T12:58:53;6.20;;;1.70;;
13590;SDS011;6866;50.778;7.206;2023-08-08T13:01:19;7.50;;;2.00;;
13590;SDS011;6866;50.778;7.206;2023-08-08T13:03:44;7.10;;;2.40;;
13590;SDS011;6866;50.778;7.206;2023-08-08T13:06:10;7.50;;;2.17;;
13590;SDS011;6866;50.778;7.206;2023-08-08T13:08:36;6.75;;;2.03;;
13590;SDS011;6866;50.778;7.206;2023-08-08T13:11:02;7.75;;;1.88;;
13590;SDS011;6866;50.778;7.206;2023-08-08T13:13:28;7.00;;;2.55;;
13590;SDS011;6866;50.778;7.206;2023-08-08T13:15:54;7.38;;;2.10;;
13590;SDS011;6866;50.778;7.206;2023-08-08T13:18:19;5.72;;;2.30;;
13590;SDS011;6866;50.778;7.206;2023-08-08T13:20:45;6.05;;;2.03;;
13590;SDS011;6866;50.778;7.206;2023-08-08T13:23:11;8.05;;;2.47;;
13590;SDS011;6866;50.778;7.206;2023-08-08T13:25:36;7.25;;;1.95;;
13590;SDS011;6866;50.778;7.206;2023-08-08T13:28:02;8.32;;;2.05;;
13590;SDS011;6866;50.778;7.206;2023-08-08T13:30:28;8.48;;;2.08;;
13590;SDS011;6866;50.778;7.206;2023-08-08T13:32:54;11.95;;;2.58;;
13590;SDS011;6866;50.778;7.206;2023-08-08T13:35:20;7.03;;;2.15;;
13590;SDS011;6866;50.778;7.206;2023-08-08T13:37:45;6.53;;;1.90;;
13590;SDS011;6866;50.778;7.206;2023-08-08T13:40:15;9.20;;;2.17;;
13590;SDS011;6866;50.778;7.206;2023-08-08T13:42:41;10.00;;;2.33;;
13590;SDS011;6866;50.778;7.206;2023-08-08T13:45:07;7.78;;;2.10;;
13590;SDS011;6866;50.778;7.206;2023-08-08T13:47:33;6.70;;;2.00;;
13590;SDS011;6866;50.778;7.206;2023-08-08T13:49:59;11.05;;;2.35;;
13590;SDS011;6866;50.778;7.206;2023-08-08T13:52:25;6.35;;;2.50;;
13590;SDS011;6866;50.778;7.206;2023-08-08T13:54:51;8.55;;;2.20;;
13590;SDS011;6866;50.778;7.206;2023-08-08T13:57:16;8.63;;;2.40;;
13590;SDS011;6866;50.778;7.206;2023-08-08T13:59:42;6.20;;;2.20;;
13590;SDS011;6866;50.778;7.206;2023-08-08T14:02:07;8.82;;;2.20;;
13590;SDS011;6866;50.778;7.206;2023-08-08T14:04:33;7.95;;;1.98;;
13590;SDS011;6866;50.778;7.206;2023-08-08T14:06:59;8.32;;;2.65;;
13590;SDS011;6866;50.778;7.206;2023-08-08T14:09:24;6.90;;;2.25;;
13590;SDS011;6866;50.778;7.206;2023-08-08T14:11:50;5.78;;;1.98;;
13590;SDS011;6866;50.778;7.206;2023-08-08T14:14:15;8.65;;;2.40;;
13590;SDS011;6866;50.778;7.206;2023-08-08T14:16:41;6.30;;;2.13;;
13590;SDS011;6866;50.778;7.206;2023-08-08T14:19:06;6.93;;;2.10;;
13590;SDS011;6866;50.778;7.206;2023-08-08T14:21:33;8.27;;;2.00;;
13590;SDS011;6866;50.778;7.206;2023-08-08T14:23:58;9.38;;;2.25;;
13590;SDS011;6866;50.778;7.206;2023-08-08T14:26:24;8.38;;;1.98;;
13590;SDS011;6866;50.778;7.206;2023-08-08T14:28:49;4.95;;;1.65;;
13590;SDS011;6866;50.778;7.206;2023-08-08T14:31:15;6.88;;;1.80;;
13590;SDS011;6866;50.778;7.206;2023-08-08T14:33:41;6.18;;;1.60;;
13590;SDS011;6866;50.778;7.206;2023-08-08T14:36:06;7.93;;;1.73;;
13590;SDS011;6866;50.778;7.206;2023-08-08T14:38:34;6.78;;;1.40;;
13590;SDS011;6866;50.778;7.206;2023-08-08T14:41:01;6.95;;;2.08;;
13590;SDS011;6866;50.778;7.206;2023-08-08T14:43:26;6.82;;;1.70;;
13590;SDS011;6866;50.778;7.206;2023-08-08T14:45:52;5.22;;;1.42;;
13590;SDS011;6866;50.778;7.206;2023-08-08T14:48:18;7.13;;;1.50;;
13590;SDS011;6866;50.778;7.206;2023-08-08T14:50:43;5.35;;;1.60;;
13590;SDS011;6866;50.778;7.206;2023-08-08T14:53:09;5.68;;;1.80;;
13590;SDS011;6866;50.778;7.206;2023-08-08T14:55:34;7.38;;;2.00;;
13590;SDS011;6866;50.778;7.206;2023-08-08T14:58:00;6.25;;;1.77;;
13590;SDS011;6866;50.778;7.206;2023-08-08T15:00:26;6.07;;;1.58;;
13590;SDS011;6866;50.778;7.206;2023-08-08T15:02:51;9.25;;;1.90;;
13590;SDS011;6866;50.778;7.206;2023-08-08T15:05:17;6.88;;;1.83;;
13590;SDS011;6866;50.778;7.206;2023-08-08T15:07:42;6.28;;;1.85;;
13590;SDS011;6866;50.778;7.206;2023-08-08T15:10:08;6.60;;;1.60;;
13590;SDS011;6866;50.778;7.206;2023-08-08T15:12:34;7.05;;;1.92;;
13590;SDS011;6866;50.778;7.206;2023-08-08T15:15:00;5.57;;;1.70;;
13590;SDS011;6866;50.778;7.206;2023-08-08T15:17:26;7.35;;;1.70;;
13590;SDS011;6866;50.778;7.206;2023-08-08T15:19:53;7.40;;;2.05;;
13590;SDS011;6866;50.778;7.206;2023-08-08T15:22:19;7.30;;;1.90;;
13590;SDS011;6866;50.778;7.206;2023-08-08T15:24:44;5.18;;;2.00;;
13590;SDS011;6866;50.778;7.206;2023-08-08T15:27:10;8.10;;;1.75;;
13590;SDS011;6866;50.778;7.206;2023-08-08T15:29:35;6.95;;;1.90;;
13590;SDS011;6866;50.778;7.206;2023-08-08T15:32:01;7.72;;;1.52;;
13590;SDS011;6866;50.778;7.206;2023-08-08T15:34:26;8.43;;;2.00;;
13590;SDS011;6866;50.778;7.206;2023-08-08T15:36:52;8.60;;;1.85;;
13590;SDS011;6866;50.778;7.206;2023-08-08T15:39:18;7.32;;;1.65;;
13590;SDS011;6866;50.778;7.206;2023-08-08T15:41:46;7.72;;;2.10;;
13590;SDS011;6866;50.778;7.206;2023-08-08T15:44:11;5.57;;;1.73;;
13590;SDS011;6866;50.778;7.206;2023-08-08T15:46:37;6.88;;;1.88;;
13590;SDS011;6866;50.778;7.206;2023-08-08T15:49:04;5.10;;;1.90;;
13590;SDS011;6866;50.778;7.206;2023-08-08T15:51:31;6.78;;;1.88;;